createdAt,value
2022-10-06T03:59:55.927Z,98695.31
2022-10-06T04:04:02.235Z,98703.81
2022-10-06T04:08:05.602Z,98707.09
2022-10-06T04:12:08.710Z,98712.06
2022-10-06T04:16:14.285Z,98715.22
2022-10-06T04:20:18.819Z,98716.03
2022-10-06T04:24:22.289Z,98721.63
2022-10-06T04:28:26.122Z,98723.13
2022-10-06T04:32:29.897Z,98732.84
2022-10-06T04:36:36.118Z,98737.19
2022-10-06T04:40:43.878Z,98740.97
2022-10-06T04:44:47.208Z,98748.47
2022-10-06T04:48:51.661Z,98756.25
2022-10-06T04:52:56.582Z,98759.09
2022-10-06T04:57:00.115Z,98762.78
2022-10-06T05:01:04.318Z,98760.44
2022-10-06T05:05:08.140Z,98769.09
2022-10-06T05:09:15.220Z,98774.84
2022-10-06T05:13:19.108Z,98772.25
2022-10-06T05:17:22.054Z,98779.09
2022-10-06T05:21:27.756Z,98780.75
2022-10-06T05:25:32.862Z,98784.88
2022-10-06T05:29:36.744Z,98787.88
2022-10-06T05:33:40.191Z,98802.09
2022-10-06T05:37:43.716Z,98801.78
2022-10-06T05:41:48.853Z,98809.03
2022-10-06T05:45:56.144Z,98820.53
2022-10-06T05:49:59.610Z,98823.38
2022-10-06T05:54:04.042Z,98827.63
2022-10-06T05:58:08.809Z,98830.09
2022-10-06T06:02:12.414Z,98833.41
2022-10-06T06:06:21.256Z,98844.25
2022-10-06T06:10:24.719Z,98836.19
2022-10-06T06:14:43.727Z,98842.66
2022-10-06T06:18:47.353Z,98859.28
2022-10-06T06:22:54.415Z,98858.53
2022-10-06T06:26:57.773Z,98873.88
2022-10-06T06:31:04.473Z,98878.59
2022-10-06T06:35:08.677Z,98886.41
2022-10-06T06:39:14.594Z,98889.63
2022-10-06T06:43:17.626Z,98893.31
2022-10-06T06:47:25.923Z,98901.19
2022-10-06T06:51:30.225Z,98901.09
2022-10-06T06:55:33.267Z,98907.06
2022-10-06T06:59:38.625Z,98907.41
2022-10-06T07:03:57.173Z,98905.97
2022-10-06T07:08:02.079Z,98919.97
2022-10-06T07:12:05.984Z,98920.34
2022-10-06T07:16:29.427Z,98926.91
2022-10-06T07:20:51.624Z,98920.56
2022-10-06T07:25:12.763Z,98924.25
2022-10-06T07:29:15.902Z,98924.03
2022-10-06T07:33:18.997Z,98922.44
2022-10-06T07:37:24.636Z,98928.13
2022-10-06T07:41:28.923Z,98921.81
2022-10-06T07:45:42.374Z,98927.94
2022-10-06T07:49:47.903Z,98930.53
2022-10-06T07:53:52.803Z,98932.50
2022-10-06T07:57:55.813Z,98934.16
2022-10-06T08:01:59.378Z,98932.53
2022-10-06T08:06:05.995Z,98931.78
2022-10-06T08:10:11.083Z,98938.88
2022-10-06T08:14:15.957Z,98942.41
2022-10-06T08:18:44.296Z,98940.25
2022-10-06T08:22:43.125Z,98934.63
2022-10-06T08:26:48.130Z,98943.53
2022-10-06T08:30:53.011Z,98947.28
2022-10-06T08:34:56.984Z,98951.44
2022-10-06T08:39:00.695Z,98960.09
2022-10-06T08:43:05.567Z,98955.50
2022-10-06T08:47:16.422Z,98958.00
2022-10-06T08:51:36.870Z,98962.09
2022-10-06T08:55:43.907Z,98953.31
2022-10-06T08:59:53.773Z,98962.47
2022-10-06T09:04:02.430Z,98948.09
2022-10-06T09:08:24.794Z,98962.91
2022-10-06T09:12:36.098Z,98958.53
2022-10-06T09:16:45.872Z,98962.47
2022-10-06T09:20:55.700Z,98960.69
2022-10-06T09:25:03.059Z,98964.31
2022-10-06T09:29:06.526Z,98967.13
2022-10-06T09:33:22.864Z,98964.88
2022-10-06T09:37:25.883Z,98962.00
2022-10-06T09:41:32.788Z,98968.56
2022-10-06T09:45:36.609Z,98963.91
2022-10-06T09:49:41.930Z,98964.88
2022-10-06T09:53:46.520Z,98972.13
2022-10-06T09:57:51.435Z,98965.28
2022-10-06T10:01:57.141Z,98965.41
2022-10-06T10:06:03.845Z,98970.75
2022-10-06T10:10:22.259Z,98968.16
2022-10-06T10:14:25.728Z,98959.53
2022-10-06T10:18:33.390Z,98957.47
2022-10-06T10:22:41.690Z,98960.53
2022-10-06T10:26:55.539Z,98961.72
2022-10-06T10:31:04.588Z,98960.69
2022-10-06T10:35:18.716Z,98954.31
2022-10-06T10:39:37.244Z,98949.72
2022-10-06T10:43:46.056Z,98954.16
2022-10-06T10:47:50.755Z,98952.06
2022-10-06T10:51:58.461Z,98953.69
2022-10-06T10:56:04.932Z,98952.44
2022-10-06T11:00:10.398Z,98953.81
2022-10-06T11:04:15.003Z,98944.53
2022-10-06T11:08:26.640Z,98954.69
2022-10-06T11:12:44.625Z,98952.84
2022-10-06T11:16:54.249Z,98948.34
2022-10-06T11:21:01.771Z,98941.88
2022-10-06T11:25:16.499Z,98940.59
2022-10-06T11:29:34.950Z,98935.84
2022-10-06T11:33:48.806Z,98939.09
2022-10-06T11:37:58.054Z,98941.53
2022-10-06T11:42:10.327Z,98932.34
2022-10-06T11:46:38.346Z,98935.25
2022-10-06T11:50:46.983Z,98930.97
2022-10-06T11:54:53.443Z,98925.72
2022-10-06T11:59:11.933Z,98922.81
2022-10-06T12:03:49.177Z,98924.19
2022-10-06T12:08:16.899Z,98911.53
2022-10-06T12:13:07.218Z,98914.19
2022-10-06T12:17:20.091Z,98908.28
2022-10-06T12:21:47.223Z,98899.22
2022-10-06T12:25:56.934Z,98907.00
2022-10-06T12:30:06.089Z,98904.91
2022-10-06T12:34:42.868Z,98905.13
2022-10-06T12:39:05.855Z,98899.81
2022-10-06T12:43:34.234Z,98888.25
2022-10-06T12:47:42.049Z,98881.13
2022-10-06T12:51:50.034Z,98885.81
2022-10-06T12:56:03.289Z,98882.44
2022-10-06T13:00:23.651Z,98883.16
2022-10-06T13:04:43.638Z,98877.81
2022-10-06T13:08:47.190Z,98875.00
2022-10-06T13:16:56.591Z,98872.91
2022-10-06T13:21:02.028Z,98869.97
2022-10-06T13:25:06.135Z,98874.00
2022-10-06T13:29:20.701Z,98869.19
2022-10-06T13:33:30.331Z,98868.56
2022-10-06T13:37:34.108Z,98857.38
2022-10-06T13:41:40.103Z,98853.41
2022-10-06T13:45:44.729Z,98852.03
2022-10-06T13:49:53.728Z,98858.66
2022-10-06T13:53:59.022Z,98849.97
2022-10-06T13:58:11.642Z,98856.53
2022-10-06T14:02:26.672Z,98846.44
2022-10-06T14:06:31.532Z,98853.06
2022-10-06T14:10:46.412Z,98854.72
2022-10-06T14:14:52.361Z,98853.19
2022-10-06T14:18:57.219Z,98856.91
2022-10-06T14:23:02.087Z,98852.81
2022-10-06T14:27:07.527Z,98850.78
2022-10-06T14:31:14.512Z,98851.41
2022-10-06T14:35:18.041Z,98848.72
2022-10-06T14:39:23.141Z,98844.53
2022-10-06T14:43:26.196Z,98850.97
2022-10-06T14:47:30.621Z,98850.03
2022-10-06T14:51:36.617Z,98840.63
2022-10-06T14:55:41.866Z,98847.34
2022-10-06T14:59:44.935Z,98847.13
2022-10-06T15:03:53.105Z,98849.88
2022-10-06T15:08:11.163Z,98849.88
2022-10-06T15:12:16.470Z,98853.59
2022-10-06T15:16:20.332Z,98847.06
2022-10-06T15:20:23.463Z,98851.72
2022-10-06T15:24:26.418Z,98847.84
2022-10-06T15:28:48.559Z,98850.09
2022-10-06T15:32:52.082Z,98855.47
2022-10-06T15:36:56.598Z,98860.22
2022-10-06T15:41:05.446Z,98863.34
2022-10-06T15:45:11.615Z,98863.78
2022-10-06T15:49:16.883Z,98870.16
2022-10-06T15:53:22.594Z,98860.97
2022-10-06T15:57:26.071Z,98861.34
2022-10-06T16:01:41.298Z,98852.31
2022-10-06T16:05:51.471Z,98859.16
2022-10-06T16:09:54.418Z,98856.63
2022-10-06T16:13:57.684Z,98859.91
2022-10-06T16:18:02.625Z,98860.75
2022-10-06T16:22:07.452Z,98861.13
2022-10-06T16:26:11.037Z,98869.22
2022-10-06T16:30:14.935Z,98872.75
2022-10-06T16:34:19.617Z,98877.66
2022-10-06T16:38:23.231Z,98879.75
2022-10-06T16:42:26.370Z,98882.34
2022-10-06T16:46:32.127Z,98891.50
2022-10-06T16:50:36.725Z,98893.31
2022-10-06T16:54:40.465Z,98893.97
2022-10-06T16:58:45.748Z,98888.88
2022-10-06T17:02:49.357Z,98899.28
2022-10-06T17:06:56.484Z,98893.00
2022-10-06T17:11:04.815Z,98896.66
2022-10-06T17:15:09.207Z,98903.81
2022-10-06T17:19:14.250Z,98905.59
2022-10-06T17:23:18.997Z,98907.66
2022-10-06T17:27:22.766Z,98909.13
2022-10-06T17:31:33.003Z,98907.91
2022-10-06T17:35:39.188Z,98914.41
2022-10-06T17:39:47.008Z,98915.84
2022-10-06T17:43:51.614Z,98913.97
2022-10-06T17:47:55.142Z,98911.75
2022-10-06T17:51:59.120Z,98910.31
2022-10-06T17:56:08.527Z,98914.00
2022-10-06T18:00:12.933Z,98915.22
2022-10-06T18:04:17.404Z,98906.53
2022-10-06T18:08:23.963Z,98915.47
2022-10-06T18:12:29.200Z,98908.47
2022-10-06T18:16:36.980Z,98911.94
2022-10-06T18:20:41.902Z,98905.72
2022-10-06T18:24:45.790Z,98905.41
2022-10-06T18:28:51.785Z,98907.41
2022-10-06T18:37:19.094Z,98910.38
2022-10-06T18:41:24.757Z,98911.22
2022-10-06T18:45:46.823Z,98905.19
2022-10-06T18:49:50.284Z,98923.44
2022-10-06T18:53:55.360Z,98922.31
2022-10-06T18:57:58.943Z,98910.81
2022-10-06T19:02:03.889Z,98917.75
2022-10-06T19:06:08.137Z,98919.41
2022-10-06T19:10:11.168Z,98918.06
2022-10-06T19:14:16.787Z,98914.13
2022-10-06T19:18:21.503Z,98912.66
2022-10-06T19:22:25.379Z,98911.53
2022-10-06T19:26:29.189Z,98920.91
2022-10-06T19:30:32.757Z,98919.09
2022-10-06T19:34:38.702Z,98916.13
2022-10-06T19:38:42.424Z,98923.88
2022-10-06T19:42:48.797Z,98926.00
2022-10-06T19:46:51.760Z,98920.56
2022-10-06T19:50:56.510Z,98923.66
2022-10-06T19:55:00.638Z,98925.97
2022-10-06T19:59:04.995Z,98928.25
2022-10-06T20:03:09.235Z,98941.72
2022-10-06T20:07:14.153Z,98938.09
2022-10-06T20:11:19.020Z,98931.69
2022-10-06T20:15:23.760Z,98933.00
2022-10-06T20:19:27.711Z,98935.28
2022-10-06T20:23:33.146Z,98938.53
2022-10-06T20:27:36.273Z,98925.56
2022-10-06T20:31:41.995Z,98934.53
2022-10-06T20:35:45.919Z,98932.38
2022-10-06T20:40:08.498Z,98932.66
2022-10-06T20:44:12.380Z,98921.06
2022-10-06T20:48:16.023Z,98918.88
2022-10-06T20:52:19.096Z,98908.50
2022-10-06T20:56:24.167Z,98916.31
2022-10-06T21:00:27.783Z,98916.94
2022-10-06T21:04:31.302Z,98918.06
2022-10-06T21:08:34.752Z,98909.03
2022-10-06T21:12:39.755Z,98910.97
2022-10-06T21:16:44.842Z,98908.00
2022-10-06T21:20:58.131Z,98898.81
2022-10-06T21:25:01.076Z,98889.59
2022-10-06T21:29:05.984Z,98893.19
2022-10-06T21:33:09.466Z,98886.31
2022-10-06T21:37:13.750Z,98888.91
2022-10-06T21:41:37.582Z,98881.06
2022-10-06T21:45:42.665Z,98879.25
2022-10-06T21:49:45.759Z,98874.47
2022-10-06T21:53:49.231Z,98868.22
2022-10-06T21:57:52.586Z,98871.75
2022-10-06T22:01:57.704Z,98872.66
2022-10-06T22:06:04.538Z,98868.50
2022-10-06T22:10:08.439Z,98861.97
2022-10-06T22:14:14.047Z,98859.44
2022-10-06T22:18:18.996Z,98853.31
2022-10-06T22:22:21.933Z,98851.44
2022-10-06T22:26:26.324Z,98851.03
2022-10-06T22:30:29.665Z,98845.94
2022-10-06T22:34:34.199Z,98840.72
2022-10-06T22:38:37.258Z,98836.47
2022-10-06T22:42:40.724Z,98840.72
2022-10-06T22:46:44.676Z,98835.47
2022-10-06T22:50:50.380Z,98832.84
2022-10-06T22:54:53.766Z,98835.47
2022-10-06T22:59:00.255Z,98824.06
2022-10-06T23:03:04.024Z,98825.69
2022-10-06T23:07:08.575Z,98824.06
2022-10-06T23:11:14.497Z,98817.28
2022-10-06T23:15:17.995Z,98815.94
2022-10-06T23:19:20.991Z,98810.22
2022-10-06T23:23:25.951Z,98812.44
2022-10-06T23:27:29.568Z,98814.00
2022-10-06T23:31:32.667Z,98814.47
2022-10-06T23:35:36.129Z,98806.91
2022-10-06T23:39:41.104Z,98807.03
2022-10-06T23:43:44.147Z,98806.38
2022-10-06T23:47:47.847Z,98813.41
2022-10-06T23:51:51.322Z,98809.00
2022-10-06T23:55:55.813Z,98800.19
2022-10-06T23:59:59.224Z,98805.69
